Aledo, IL (61231)

4:05 AM CDT on May 05, 2015 (GMT -0500)
KILMILAN2 | | Change Station
CLOSE
Current Station
Personal Weather Station
Location: Milan, IL
Elevation: 653 ft
Nearby Weather Stations

Elev 653 ft 41.42 °N, 90.54 °W | Updated 4 minutes ago

Rain
Rain
60.1 °F
Feels Like 60.1 °F
N
1.0
Wind Variable Wind from SW
Gusts 1.0 mph

Today
High -- | Low -- °F
--% Chance of Precip.
Yesterday
High -- | Low -- °F
Precip. -- in
5:55 AM 8:04 PM
Full, 98% visible
Pressure 30.12 in
Visibility 1.8 miles
Clouds Mostly Cloudy 500 ft
Overcast 4400 ft
Dew Point 56 °F
Humidity 87%
Rainfall 0.46 in
Snow Depth Not available.
UV 0 out of 12
Pollen 4.30 out of 12
Air Quality Not available.
Flu Activity Local Activity
METAR KMLI 050852Z AUTO 09006KT 1 3/4SM +RA BR BKN005 OVC044 16/14 A3012 RMK AO2 SLP198 P0014 60022 T01560144 55005 $

More Conditions Fewer Conditions

Pressure 30.12 in
Visibility 1.8 miles
Clouds Mostly Cloudy 500 ft
Overcast 4400 ft
Dew Point 56 °F
Humidity 87%
Rainfall 0.46 in
Snow Depth Not available.
UV 0 out of 12
Pollen 4.30 out of 12
Air Quality Not available.
Flu Activity Local Activity
METAR KMLI 050852Z AUTO 09006KT 1 3/4SM +RA BR BKN005 OVC044 16/14 A3012 RMK AO2 SLP198 P0014 60022 T01560144 55005 $

More Conditions Fewer Conditions

Nepal has a long way to go to dig out and rebuild from a devastating earthquake. We have teamed up with several charities and organizations to make contributing to the relief effort as easy as possible.
How you can help: Portlight Strategies | Red Cross

10-Day Weather Forecast

Almanac

Astronomy

May. 05, 2015 Rise Set
Actual Time
Civil Twilight
Nautical Twilight
Astronomical Twilight
Moon
Length of Visible Light
Length of Day
Tomorrow will be .
, % of the Moon is Illuminated

Today's Extremes

State Highs State Lows

Community

WunderPhotos

Upload Photos

1,818,824 photos uploaded!

WunderBlogs® & News

Nearby

Air Quality

  Air Quality AQ Index Pollutant
Not available.

Snow Depth

Station Depth Elevation

Earthquake Activity

City Distance Mag. Time & Date
Minimum magnitude displayed is 2.5.

Coastal Water Temperatures

Place Temperature

Stations

Nearby Weather Stations

Station Location Temp. Windchill Dew Point Humidity Wind Precip. Elev Updated Type